Am Buchanan — V7AT9 — position and weather

sailwx.info

Track history (hours):
 
Tides and Currents Weather Stations Pressure Air Temp Water Temp Dewpoint Dewpoint Depression Visibility Wind Speed Wind Dir Waves Ship Positions

Am Buchanan

Last reported at 2017-Oct-01 19:53 UTC. Time now 2017-Oct-16 22:30 UTC.
Position N 31°27' E 032°19'.
Warning: this ship's position is 15 days out of date.

Length 229 m; draft 14.6 m.

Type: Cargo ship. MMSI: 538005066.

Date/timePositionNaut miles runAvg speedWind from/ knotsBaromVisibWave heightAir tempDewpointWater temp
2017-Oct-01 19:53N 31°27' E 032°19'2 4.6
2017-Oct-01 19:22N 31°29' E 032°17'11 8.1
2017-Oct-01 18:01N 31°36' E 032°08'0 8.5
2017-Oct-01 18:00N 31°36' E 032°08'12 8.5
2017-Oct-01 16:39N 31°44' E 031°58'  
2017-Sep-28 08:59N 36°20' E 014°45'611.6
2017-Sep-28 08:30N 36°21' E 014°38'611.8
2017-Sep-28 08:00N 36°23' E 014°31'611.9
2017-Sep-28 07:30N 36°25' E 014°24'611.9
2017-Sep-28 07:00N 36°26' E 014°17'611.8
2017-Sep-28 06:30N 36°28' E 014°10'611.7
2017-Sep-28 06:00N 36°30' E 014°03'711.8
2017-Sep-28 05:24N 36°32' E 013°54'  
2017-Sep-26 01:20N 36°57' E 001°29'511.9
2017-Sep-26 00:55N 36°56' E 001°23'2311.6
2017-Sep-25 22:55N 36°52' E 000°54'511.7
2017-Sep-25 22:30N 36°52' E 000°48'1111.8
2017-Sep-25 21:33N 36°49' E 000°35'011.7
2017-Sep-25 21:30N 36°49' E 000°34'611.8
2017-Sep-25 21:00N 36°47' E 000°27'612.0
2017-Sep-25 20:30N 36°45' E 000°20'612.1
2017-Sep-25 20:00N 36°44' E 000°12'612.0
2017-Sep-25 19:29N 36°42' E 000°05'812.1
2017-Sep-25 18:49N 36°40' W 000°05'812.1
2017-Sep-25 18:08N 36°37' W 000°15'212.0
2017-Sep-25 18:00N 36°37' W 000°16'611.9
2017-Sep-25 17:30N 36°35' W 000°24'611.9
2017-Sep-25 17:01N 36°34' W 000°31'711.7
2017-Sep-25 16:27N 36°32' W 000°38'511.4
2017-Sep-25 15:59N 36°30' W 000°45'21612.7
2017-Sep-24 23:01N 36°00' W 005°10'012.8
2017-Sep-24 23:00N 36°00' W 005°10'612.0
2017-Sep-24 22:30N 35°60' W 005°17'510.3
2017-Sep-24 22:00N 36°04' W 005°21'3 5.6
2017-Sep-24 21:27N 36°07' W 005°22'0 0.1
2017-Sep-24 17:57N 36°07' W 005°22'0 0.1
2017-Sep-24 17:30N 36°07' W 005°22'0 0.0
2017-Sep-24 17:00N 36°07' W 005°22'0 0.0
2017-Sep-24 16:30N 36°07' W 005°22'0 0.0
2017-Sep-24 16:00N 36°07' W 005°22'0 0.2
2017-Sep-24 15:30N 36°07' W 005°22'0 0.1
2017-Sep-24 15:00N 36°07' W 005°22'0 0.0
2017-Sep-24 14:30N 36°07' W 005°22'0 0.0
2017-Sep-24 13:59N 36°07' W 005°22'0 0.2
2017-Sep-24 13:29N 36°07' W 005°22'0 0.4
2017-Sep-24 12:53N 36°07' W 005°22'0 0.2
2017-Sep-24 12:30N 36°07' W 005°22'2 3.3
2017-Sep-24 11:52N 36°05' W 005°21'3 9.0
2017-Sep-24 11:30N 36°05' W 005°17'9 1.1
2017-Sep-24 02:54N 36°10' W 005°08'1 1.1
2017-Sep-24 02:03N 36°09' W 005°07'0 0.7
2017-Sep-24 01:41N 36°09' W 005°08'1 2.6
2017-Sep-24 01:28N 36°09' W 005°08'1 0.8
2017-Sep-24 00:42N 36°08' W 005°08'0 1.1
2017-Sep-24 00:20N 36°08' W 005°07'1 1.0
2017-Sep-23 23:44N 36°08' W 005°06'1 0.4
2017-Sep-23 20:10N 36°10' W 005°06'  
Track history (hours):
 
Tides and Currents Weather Stations Pressure Air Temp Water Temp Dewpoint Dewpoint Depression Visibility Wind Speed Wind Dir Waves Ship Positions

Am Buchanan

Last reported at 2017-Oct-01 19:53 UTC. Time now 2017-Oct-16 22:30 UTC.
Position N 31°27' E 032°19'.
Warning: this ship's position is 15 days out of date.

Length 229 m; draft 14.6 m.

Type: Cargo ship. MMSI: 538005066.

Date/timePositionNaut miles runAvg speedWind from/ knotsBaromVisibWave heightAir tempDewpointWater temp
2017-Oct-01 19:53N 31°27' E 032°19'2 4.6
2017-Oct-01 19:22N 31°29' E 032°17'11 8.1
2017-Oct-01 18:01N 31°36' E 032°08'0 8.5
2017-Oct-01 18:00N 31°36' E 032°08'12 8.5
2017-Oct-01 16:39N 31°44' E 031°58'  
2017-Sep-28 08:59N 36°20' E 014°45'611.6
2017-Sep-28 08:30N 36°21' E 014°38'611.8
2017-Sep-28 08:00N 36°23' E 014°31'611.9
2017-Sep-28 07:30N 36°25' E 014°24'611.9
2017-Sep-28 07:00N 36°26' E 014°17'611.8
2017-Sep-28 06:30N 36°28' E 014°10'611.7
2017-Sep-28 06:00N 36°30' E 014°03'711.8
2017-Sep-28 05:24N 36°32' E 013°54'  
2017-Sep-26 01:20N 36°57' E 001°29'511.9
2017-Sep-26 00:55N 36°56' E 001°23'2311.6
2017-Sep-25 22:55N 36°52' E 000°54'511.7
2017-Sep-25 22:30N 36°52' E 000°48'1111.8
2017-Sep-25 21:33N 36°49' E 000°35'011.7
2017-Sep-25 21:30N 36°49' E 000°34'611.8
2017-Sep-25 21:00N 36°47' E 000°27'612.0
2017-Sep-25 20:30N 36°45' E 000°20'612.1
2017-Sep-25 20:00N 36°44' E 000°12'612.0
2017-Sep-25 19:29N 36°42' E 000°05'812.1
2017-Sep-25 18:49N 36°40' W 000°05'812.1
2017-Sep-25 18:08N 36°37' W 000°15'212.0
2017-Sep-25 18:00N 36°37' W 000°16'611.9
2017-Sep-25 17:30N 36°35' W 000°24'611.9
2017-Sep-25 17:01N 36°34' W 000°31'711.7
2017-Sep-25 16:27N 36°32' W 000°38'511.4
2017-Sep-25 15:59N 36°30' W 000°45'21612.7
2017-Sep-24 23:01N 36°00' W 005°10'012.8
2017-Sep-24 23:00N 36°00' W 005°10'612.0
2017-Sep-24 22:30N 35°60' W 005°17'510.3
2017-Sep-24 22:00N 36°04' W 005°21'3 5.6
2017-Sep-24 21:27N 36°07' W 005°22'0 0.1
2017-Sep-24 17:57N 36°07' W 005°22'0 0.1
2017-Sep-24 17:30N 36°07' W 005°22'0 0.0
2017-Sep-24 17:00N 36°07' W 005°22'0 0.0
2017-Sep-24 16:30N 36°07' W 005°22'0 0.0
2017-Sep-24 16:00N 36°07' W 005°22'0 0.2
2017-Sep-24 15:30N 36°07' W 005°22'0 0.1
2017-Sep-24 15:00N 36°07' W 005°22'0 0.0
2017-Sep-24 14:30N 36°07' W 005°22'0 0.0
2017-Sep-24 13:59N 36°07' W 005°22'0 0.2
2017-Sep-24 13:29N 36°07' W 005°22'0 0.4
2017-Sep-24 12:53N 36°07' W 005°22'0 0.2
2017-Sep-24 12:30N 36°07' W 005°22'2 3.3
2017-Sep-24 11:52N 36°05' W 005°21'3 9.0
2017-Sep-24 11:30N 36°05' W 005°17'9 1.1
2017-Sep-24 02:54N 36°10' W 005°08'1 1.1
2017-Sep-24 02:03N 36°09' W 005°07'0 0.7
2017-Sep-24 01:41N 36°09' W 005°08'1 2.6
2017-Sep-24 01:28N 36°09' W 005°08'1 0.8
2017-Sep-24 00:42N 36°08' W 005°08'0 1.1
2017-Sep-24 00:20N 36°08' W 005°07'1 1.0
2017-Sep-23 23:44N 36°08' W 005°06'1 0.4
2017-Sep-23 20:10N 36°10' W 005°06'  

Dump ship's entire track history